createdAt,value
2022-12-18T00:01:22.044Z,34.88
2022-12-18T00:03:49.468Z,38.55
2022-12-18T00:06:16.459Z,35.80
2022-12-18T00:08:45.500Z,36.60
2022-12-18T00:11:14.804Z,35.50
2022-12-18T00:13:42.112Z,36.55
2022-12-18T00:16:13.374Z,40.40
2022-12-18T00:18:41.154Z,34.13
2022-12-18T00:21:09.598Z,32.33
2022-12-18T00:23:37.737Z,37.33
2022-12-18T00:26:07.609Z,37.08
2022-12-18T00:28:34.472Z,36.67
2022-12-18T00:31:07.059Z,32.97
2022-12-18T00:33:35.267Z,33.55
2022-12-18T00:36:07.197Z,37.07
2022-12-18T00:38:34.566Z,35.78
2022-12-18T00:41:01.052Z,41.13
2022-12-18T00:43:27.821Z,40.45
2022-12-18T00:45:54.561Z,36.80
2022-12-18T00:48:21.477Z,33.40
2022-12-18T00:50:51.668Z,32.22
2022-12-18T00:53:18.916Z,41.50
2022-12-18T00:55:46.218Z,39.95
2022-12-18T00:58:13.822Z,44.33
2022-12-18T01:00:40.634Z,32.87
2022-12-18T01:03:07.570Z,40.72
2022-12-18T01:05:40.986Z,34.80
2022-12-18T01:08:07.557Z,39.78
2022-12-18T01:10:34.108Z,34.10
2022-12-18T01:13:00.628Z,33.50
2022-12-18T01:15:27.152Z,37.75
2022-12-18T01:17:54.364Z,38.08
2022-12-18T01:20:21.606Z,38.35
2022-12-18T01:22:48.071Z,37.55
2022-12-18T01:25:14.572Z,40.37
2022-12-18T01:27:41.052Z,37.22
2022-12-18T01:30:08.207Z,39.38
2022-12-18T01:32:34.723Z,37.08
2022-12-18T01:35:01.234Z,40.60
2022-12-18T01:37:27.833Z,34.97
2022-12-18T01:39:55.579Z,37.53
2022-12-18T01:42:22.969Z,43.25
2022-12-18T01:45:21.225Z,33.42
2022-12-18T01:47:50.617Z,35.67
2022-12-18T01:50:23.354Z,38.40
2022-12-18T01:52:56.607Z,36.78
2022-12-18T01:55:26.090Z,40.70
2022-12-18T01:57:55.985Z,38.17
2022-12-18T02:00:24.144Z,43.67
2022-12-18T02:02:50.936Z,40.83
2022-12-18T02:05:21.021Z,42.20
2022-12-18T02:08:02.702Z,37.92
2022-12-18T02:10:45.541Z,40.72
2022-12-18T02:13:20.864Z,37.17
2022-12-18T02:16:03.628Z,44.90
2022-12-18T02:18:38.004Z,38.65
2022-12-18T02:21:19.864Z,35.95
2022-12-18T02:23:50.683Z,39.90
2022-12-18T02:26:37.236Z,39.08
2022-12-18T02:29:09.289Z,37.07
2022-12-18T02:31:44.191Z,38.63
2022-12-18T02:34:12.800Z,48.05
2022-12-18T02:36:43.387Z,33.95
2022-12-18T02:39:12.627Z,38.28
2022-12-18T02:41:40.083Z,34.20
2022-12-18T02:44:12.307Z,39.20
2022-12-18T02:46:51.176Z,44.65
2022-12-18T02:49:26.726Z,38.53
2022-12-18T02:52:06.095Z,37.55
2022-12-18T02:55:06.084Z,37.27
2022-12-18T02:57:43.889Z,38.80
2022-12-18T03:00:31.737Z,28.88
2022-12-18T03:03:33.827Z,36.65
2022-12-18T03:06:24.684Z,37.22
2022-12-18T03:08:59.488Z,32.40
2022-12-18T03:11:55.806Z,31.67
2022-12-18T03:14:26.469Z,27.90
2022-12-18T03:16:59.181Z,37.25
2022-12-18T03:19:30.502Z,31.48
2022-12-18T03:21:58.800Z,29.23
2022-12-18T03:24:28.866Z,35.33
2022-12-18T03:27:01.170Z,32.05
2022-12-18T03:29:35.036Z,37.22
2022-12-18T03:32:12.600Z,27.05
2022-12-18T03:34:43.458Z,30.13
2022-12-18T03:37:09.931Z,28.33
2022-12-18T03:39:37.427Z,28.75
2022-12-18T03:42:18.857Z,27.98
2022-12-18T03:45:09.915Z,28.65
2022-12-18T03:47:42.433Z,24.40
2022-12-18T03:50:27.478Z,25.75
2022-12-18T03:53:01.068Z,24.73
2022-12-18T03:55:32.057Z,27.48
2022-12-18T03:58:00.714Z,28.20
2022-12-18T04:00:28.137Z,26.50
2022-12-18T04:02:56.976Z,30.95
2022-12-18T04:05:26.554Z,27.02
2022-12-18T04:07:54.930Z,27.02
2022-12-18T04:10:21.525Z,21.10
2022-12-18T04:12:48.081Z,28.27
2022-12-18T04:15:15.152Z,28.02
2022-12-18T04:17:49.564Z,23.75
2022-12-18T04:20:16.865Z,25.70
2022-12-18T04:22:43.659Z,26.20
2022-12-18T04:25:10.152Z,23.83
2022-12-18T04:27:36.616Z,26.30
2022-12-18T04:30:03.634Z,24.40
2022-12-18T04:32:30.089Z,21.50
2022-12-18T04:34:56.583Z,26.92
2022-12-18T04:37:23.156Z,23.30
2022-12-18T04:39:49.610Z,27.20
2022-12-18T04:42:16.073Z,29.15
2022-12-18T04:44:42.619Z,41.47
2022-12-18T04:47:09.124Z,32.03
2022-12-18T04:49:35.608Z,31.90
2022-12-18T04:52:02.090Z,32.30
2022-12-18T04:54:28.755Z,33.85
2022-12-18T04:56:55.346Z,29.23
2022-12-18T04:59:21.879Z,27.10
2022-12-18T05:01:48.654Z,26.87
2022-12-18T05:04:15.299Z,27.80
2022-12-18T05:06:41.868Z,24.90
2022-12-18T05:09:08.355Z,23.95
2022-12-18T05:11:37.414Z,26.55
2022-12-18T05:14:03.942Z,26.87
2022-12-18T05:16:30.466Z,25.40
2022-12-18T05:18:57.002Z,19.15
2022-12-18T05:21:23.477Z,24.25
2022-12-18T05:23:49.952Z,22.45
2022-12-18T05:26:19.118Z,25.77
2022-12-18T05:28:46.874Z,23.20
2022-12-18T05:31:13.902Z,20.30
2022-12-18T05:33:40.780Z,22.17
2022-12-18T05:36:09.758Z,22.27
2022-12-18T05:38:38.057Z,24.47
2022-12-18T05:41:05.821Z,23.27
2022-12-18T05:43:34.353Z,19.20
2022-12-18T05:46:08.230Z,19.23
2022-12-18T05:48:35.203Z,21.38
2022-12-18T05:51:06.997Z,21.00
2022-12-18T05:53:33.597Z,25.98
2022-12-18T05:56:09.265Z,20.33
2022-12-18T05:58:36.032Z,20.52
2022-12-18T06:01:14.773Z,23.02
2022-12-18T06:03:41.993Z,20.27
2022-12-18T06:06:20.493Z,18.30
2022-12-18T06:08:47.428Z,23.52
2022-12-18T06:11:16.719Z,22.05
2022-12-18T06:13:43.204Z,16.70
2022-12-18T06:16:09.783Z,21.00
2022-12-18T06:18:36.638Z,21.67
2022-12-18T06:21:03.100Z,16.25
2022-12-18T06:23:29.588Z,14.95
2022-12-18T06:25:56.063Z,18.80
2022-12-18T06:28:22.620Z,21.03
2022-12-18T06:30:49.893Z,23.52
2022-12-18T06:33:17.561Z,20.45
2022-12-18T06:35:44.115Z,22.52
2022-12-18T06:38:10.600Z,19.00
2022-12-18T06:40:38.889Z,16.77
2022-12-18T06:43:05.684Z,15.55
2022-12-18T06:45:32.372Z,16.55
2022-12-18T06:47:58.936Z,22.40
2022-12-18T06:50:25.784Z,15.02
2022-12-18T06:52:52.284Z,17.97
2022-12-18T06:55:19.004Z,23.63
2022-12-18T06:57:45.468Z,16.38
2022-12-18T07:00:12.842Z,19.10
2022-12-18T07:02:39.475Z,17.02
2022-12-18T07:05:10.697Z,16.30
2022-12-18T07:07:37.958Z,16.10
2022-12-18T07:10:04.948Z,14.57
2022-12-18T07:12:31.424Z,14.80
2022-12-18T07:14:58.091Z,16.85
2022-12-18T07:17:24.811Z,19.93
2022-12-18T07:19:51.439Z,18.27
2022-12-18T07:22:18.067Z,15.90
2022-12-18T07:24:44.552Z,18.65
2022-12-18T07:27:10.994Z,14.45
2022-12-18T07:29:37.469Z,16.47
2022-12-18T07:32:04.828Z,16.25
2022-12-18T07:34:31.489Z,15.90
2022-12-18T07:36:57.993Z,18.33
2022-12-18T07:39:24.551Z,19.83
2022-12-18T07:42:11.060Z,19.23
2022-12-18T07:44:38.195Z,18.33
2022-12-18T07:47:07.789Z,16.67
2022-12-18T07:49:38.285Z,17.83
2022-12-18T07:52:04.880Z,18.00
2022-12-18T07:54:31.343Z,17.83
2022-12-18T07:56:57.809Z,17.10
2022-12-18T07:59:24.289Z,22.98
2022-12-18T08:01:50.885Z,19.73
2022-12-18T08:04:17.492Z,19.33
2022-12-18T08:06:47.710Z,22.00
2022-12-18T08:09:15.015Z,21.85
2022-12-18T08:11:41.504Z,19.10
2022-12-18T08:14:07.973Z,17.70
2022-12-18T08:16:34.605Z,20.40
2022-12-18T08:19:01.364Z,18.03
2022-12-18T08:21:30.577Z,13.80
2022-12-18T08:23:59.706Z,18.58
2022-12-18T08:26:29.355Z,19.73
2022-12-18T08:28:57.361Z,18.25
2022-12-18T08:31:24.578Z,21.77
2022-12-18T08:33:52.466Z,18.60
2022-12-18T08:36:20.476Z,19.08
2022-12-18T08:38:48.000Z,19.67
2022-12-18T08:41:17.121Z,18.90
2022-12-18T08:44:02.695Z,28.27
2022-12-18T08:46:35.219Z,21.75
2022-12-18T08:49:02.014Z,21.52
2022-12-18T08:51:29.460Z,25.20
2022-12-18T08:53:56.208Z,27.70
2022-12-18T08:56:23.163Z,31.47
2022-12-18T08:58:53.373Z,37.25
2022-12-18T09:01:20.903Z,32.30
2022-12-18T09:03:47.492Z,37.10
2022-12-18T09:06:16.976Z,36.92
2022-12-18T09:08:47.068Z,28.07
2022-12-18T09:11:21.733Z,23.27
2022-12-18T09:13:48.327Z,21.77
2022-12-18T09:16:14.900Z,24.77
2022-12-18T09:18:41.998Z,21.60
2022-12-18T09:21:14.310Z,22.20
2022-12-18T09:23:41.166Z,32.40
2022-12-18T09:26:07.782Z,26.00
2022-12-18T09:28:34.622Z,21.48
2022-12-18T09:31:05.772Z,22.55
2022-12-18T09:33:32.333Z,22.57
2022-12-18T09:35:58.846Z,17.45
2022-12-18T09:38:25.322Z,27.60
2022-12-18T09:41:00.675Z,32.55
2022-12-18T09:43:45.233Z,23.10
2022-12-18T09:46:19.860Z,26.63
2022-12-18T09:49:13.647Z,20.63
2022-12-18T09:51:50.353Z,21.73
2022-12-18T09:54:27.759Z,25.65
2022-12-18T09:56:54.692Z,24.92
2022-12-18T09:59:34.359Z,23.93
2022-12-18T10:02:01.149Z,23.35
2022-12-18T10:04:32.834Z,20.83
2022-12-18T10:07:10.140Z,21.95
2022-12-18T10:09:57.016Z,25.17
2022-12-18T10:12:43.677Z,22.47
2022-12-18T10:15:10.096Z,20.88
2022-12-18T10:17:55.605Z,23.75
2022-12-18T10:20:30.730Z,23.45
2022-12-18T10:22:57.174Z,23.65
2022-12-18T10:25:39.696Z,22.90
2022-12-18T10:28:15.250Z,23.05
2022-12-18T10:30:43.105Z,25.02
2022-12-18T10:33:16.849Z,22.83
2022-12-18T10:35:45.301Z,24.08
2022-12-18T10:38:17.594Z,23.13
2022-12-18T10:40:57.778Z,17.40
2022-12-18T10:43:29.102Z,20.13
2022-12-18T10:46:18.151Z,22.02
2022-12-18T10:48:47.572Z,24.50
2022-12-18T10:51:34.439Z,26.80
2022-12-18T10:54:14.121Z,15.50
2022-12-18T10:56:40.734Z,22.27
2022-12-18T10:59:10.894Z,29.05
2022-12-18T11:01:48.392Z,26.25
2022-12-18T11:04:27.161Z,28.63
2022-12-18T11:07:01.068Z,22.77
2022-12-18T11:09:33.317Z,21.05
2022-12-18T11:12:03.311Z,25.98
2022-12-18T11:15:00.640Z,29.35
2022-12-18T11:17:33.442Z,25.10
2022-12-18T11:20:20.447Z,25.92
2022-12-18T11:22:58.168Z,24.17
2022-12-18T11:25:33.339Z,24.83
2022-12-18T11:28:03.632Z,27.75
2022-12-18T11:30:31.525Z,23.63
2022-12-18T11:33:06.723Z,25.10
2022-12-18T11:35:53.841Z,25.58
2022-12-18T11:38:29.913Z,31.10
2022-12-18T11:41:01.393Z,26.05
2022-12-18T11:43:39.207Z,24.17
2022-12-18T11:46:17.675Z,27.08
2022-12-18T11:49:15.310Z,24.95
2022-12-18T11:52:01.324Z,24.80
2022-12-18T11:54:27.820Z,23.42
2022-12-18T11:57:04.384Z,25.30
2022-12-18T12:00:04.881Z,31.08
2022-12-18T12:02:49.931Z,31.70
2022-12-18T12:05:30.777Z,24.42
2022-12-18T12:08:42.801Z,28.25
2022-12-18T12:11:40.295Z,24.37
2022-12-18T12:14:19.099Z,27.30
2022-12-18T12:16:56.336Z,25.77
2022-12-18T12:19:29.139Z,24.75
2022-12-18T12:22:18.872Z,27.00
2022-12-18T12:24:54.711Z,21.83
2022-12-18T12:27:50.544Z,22.65
2022-12-18T12:30:22.689Z,22.00
2022-12-18T12:33:23.124Z,23.98
2022-12-18T12:36:23.156Z,28.38
2022-12-18T12:38:57.823Z,29.80
2022-12-18T12:41:50.888Z,23.63
2022-12-18T12:44:26.640Z,28.83
2022-12-18T12:47:00.353Z,26.08
2022-12-18T12:49:30.216Z,24.10
2022-12-18T12:52:05.328Z,27.53
2022-12-18T12:54:34.781Z,23.73
2022-12-18T12:57:21.862Z,26.48
2022-12-18T12:59:59.306Z,26.20
2022-12-18T13:02:45.093Z,30.60
2022-12-18T13:05:28.146Z,21.73
2022-12-18T13:08:00.366Z,27.48
2022-12-18T13:10:34.053Z,24.73
2022-12-18T13:13:09.220Z,22.88
2022-12-18T13:15:51.434Z,27.17
2022-12-18T13:18:26.282Z,18.90
2022-12-18T13:21:11.535Z,25.85
2022-12-18T13:23:42.192Z,23.08
2022-12-18T13:26:09.289Z,21.73
2022-12-18T13:28:48.033Z,17.88
2022-12-18T13:31:30.859Z,19.70
2022-12-18T13:34:26.746Z,21.67
2022-12-18T13:36:56.714Z,23.20
2022-12-18T13:39:35.316Z,21.55
2022-12-18T13:42:05.450Z,21.13
2022-12-18T13:44:44.481Z,27.77
2022-12-18T13:47:38.442Z,18.58
2022-12-18T13:50:33.949Z,16.13
2022-12-18T13:53:08.815Z,16.30
2022-12-18T13:55:35.661Z,19.85
2022-12-18T13:58:06.815Z,18.77
2022-12-18T14:00:35.466Z,19.75
2022-12-18T14:03:02.339Z,20.65
2022-12-18T14:05:32.100Z,17.33
2022-12-18T14:08:04.292Z,22.77
2022-12-18T14:10:48.475Z,14.87
2022-12-18T14:13:31.878Z,14.02
2022-12-18T14:16:05.018Z,18.52
2022-12-18T14:19:08.419Z,18.65
2022-12-18T14:21:41.937Z,18.17
2022-12-18T14:24:39.313Z,16.93
2022-12-18T14:27:26.947Z,18.23
2022-12-18T14:29:56.422Z,17.77
2022-12-18T14:32:31.612Z,18.13
2022-12-18T14:35:16.305Z,13.85
2022-12-18T14:54:02.806Z,11.57
2022-12-18T15:12:48.577Z,10.60
2022-12-18T15:19:23.074Z,14.90
2022-12-18T15:22:50.337Z,11.25
2022-12-18T15:25:57.912Z,8.30
2022-12-18T15:29:09.087Z,11.70
2022-12-18T15:32:23.331Z,9.13
2022-12-18T15:36:26.792Z,9.77
2022-12-18T15:39:21.626Z,9.60
2022-12-18T15:42:13.573Z,7.70
2022-12-18T15:44:48.573Z,9.95
2022-12-18T15:47:37.777Z,9.47
2022-12-18T15:50:15.102Z,8.65
2022-12-18T15:52:57.996Z,9.30
2022-12-18T15:56:00.758Z,8.57
2022-12-18T15:58:48.908Z,9.18
2022-12-18T16:01:18.913Z,7.03
2022-12-18T16:03:46.123Z,11.57
2022-12-18T16:06:40.305Z,9.40
2022-12-18T16:09:26.515Z,8.07
2022-12-18T16:11:57.831Z,9.07
2022-12-18T16:14:27.729Z,7.70
2022-12-18T16:17:04.732Z,7.20
2022-12-18T16:19:37.180Z,9.05
2022-12-18T16:22:21.780Z,7.53
2022-12-18T16:24:52.197Z,10.43
2022-12-18T16:27:23.015Z,21.20
2022-12-18T16:29:51.400Z,17.45
2022-12-18T16:32:22.269Z,12.68
2022-12-18T16:34:53.370Z,6.82
2022-12-18T16:37:22.328Z,9.57
2022-12-18T16:39:51.497Z,11.23
2022-12-18T16:42:20.641Z,8.35
2022-12-18T16:44:48.820Z,8.57
2022-12-18T16:47:16.123Z,7.88
2022-12-18T16:49:46.167Z,9.55
2022-12-18T16:52:16.964Z,8.30
2022-12-18T16:54:46.140Z,8.65
2022-12-18T16:57:15.752Z,8.98
2022-12-18T16:59:45.874Z,8.30
2022-12-18T17:02:20.297Z,6.65
2022-12-18T17:04:50.386Z,6.60
2022-12-18T17:07:17.151Z,7.10
2022-12-18T17:09:43.761Z,6.07
2022-12-18T17:12:10.788Z,9.18
2022-12-18T17:14:37.779Z,5.85
2022-12-18T17:17:21.901Z,6.43
2022-12-18T17:19:49.707Z,6.85
2022-12-18T17:22:16.874Z,6.63
2022-12-18T17:24:46.589Z,5.82
2022-12-18T17:27:13.273Z,6.65
2022-12-18T17:29:45.356Z,5.17
2022-12-18T17:32:17.902Z,6.18
2022-12-18T17:34:44.572Z,6.45
2022-12-18T17:37:11.342Z,4.35
2022-12-18T17:39:37.945Z,5.97
2022-12-18T17:42:05.308Z,5.73
2022-12-18T17:44:34.396Z,5.13
2022-12-18T17:47:01.584Z,5.13
2022-12-18T17:49:28.569Z,4.85
2022-12-18T17:51:55.509Z,5.30
2022-12-18T17:54:22.132Z,3.57
2022-12-18T17:56:48.853Z,4.47
2022-12-18T17:59:18.007Z,4.30
2022-12-18T18:01:47.684Z,4.60
2022-12-18T18:04:15.211Z,5.63
2022-12-18T18:06:41.916Z,7.07
2022-12-18T18:09:15.918Z,5.20
2022-12-18T18:12:04.565Z,3.88
2022-12-18T18:14:33.131Z,5.07
2022-12-18T18:17:04.742Z,6.68
2022-12-18T18:19:32.835Z,5.50
2022-12-18T18:21:59.546Z,4.97
2022-12-18T18:24:30.010Z,4.38
2022-12-18T18:27:01.192Z,3.80
2022-12-18T18:29:32.308Z,5.85
2022-12-18T18:31:59.243Z,7.87
2022-12-18T18:34:28.397Z,4.40
2022-12-18T18:36:57.324Z,7.07
2022-12-18T18:39:24.341Z,5.03
2022-12-18T18:41:52.940Z,4.88
2022-12-18T18:44:28.153Z,5.30
2022-12-18T18:46:56.489Z,5.22
2022-12-18T18:49:27.978Z,4.22
2022-12-18T18:51:56.985Z,7.47
2022-12-18T18:54:24.358Z,4.60
2022-12-18T18:59:38.288Z,7.32
2022-12-18T19:02:05.382Z,5.32
2022-12-18T19:04:33.893Z,6.93
2022-12-18T19:07:01.559Z,7.65
2022-12-18T19:09:30.115Z,4.87
2022-12-18T19:12:16.934Z,5.63
2022-12-18T19:14:44.095Z,6.38
2022-12-18T19:17:11.276Z,6.22
2022-12-18T19:19:38.179Z,5.53
2022-12-18T19:22:05.026Z,6.77
2022-12-18T19:24:33.127Z,7.60
2022-12-18T19:26:59.785Z,4.75
2022-12-18T19:29:26.313Z,6.82
2022-12-18T19:31:58.873Z,7.90
2022-12-18T19:34:27.718Z,8.13
2022-12-18T19:36:59.735Z,5.47
2022-12-18T19:39:26.526Z,6.82
2022-12-18T19:41:53.201Z,6.57
2022-12-18T19:44:20.873Z,5.47
2022-12-18T19:46:51.772Z,6.20
2022-12-18T19:49:18.456Z,6.82
2022-12-18T19:51:45.836Z,7.25
2022-12-18T19:54:17.006Z,5.60
2022-12-18T19:56:45.137Z,7.97
2022-12-18T19:59:11.993Z,8.27
2022-12-18T20:01:42.143Z,5.65
2022-12-18T20:04:09.177Z,5.72
2022-12-18T20:06:46.840Z,6.18
2022-12-18T20:09:14.047Z,8.00
2022-12-18T20:11:42.058Z,7.03
2022-12-18T20:14:13.646Z,4.22
2022-12-18T20:16:41.721Z,9.60
2022-12-18T20:19:12.185Z,7.93
2022-12-18T20:21:39.435Z,7.38
2022-12-18T20:24:08.307Z,7.47
2022-12-18T20:26:35.127Z,7.30
2022-12-18T20:29:01.794Z,8.60
2022-12-18T20:31:28.402Z,5.60
2022-12-18T20:34:00.228Z,8.52
2022-12-18T20:36:29.552Z,7.00
2022-12-18T20:39:04.054Z,6.90
2022-12-18T20:41:38.197Z,7.82
2022-12-18T20:44:23.623Z,4.97
2022-12-18T20:46:56.504Z,8.57
2022-12-18T20:49:26.032Z,6.40
2022-12-18T20:51:54.230Z,7.80
2022-12-18T20:54:24.037Z,3.80
2022-12-18T20:56:53.542Z,6.47
2022-12-18T20:59:20.729Z,7.63
2022-12-18T21:01:51.896Z,5.90
2022-12-18T21:04:21.338Z,4.65
2022-12-18T21:06:53.375Z,8.45
2022-12-18T21:09:24.575Z,11.05
2022-12-18T21:12:13.951Z,6.78
2022-12-18T21:14:41.534Z,7.57
2022-12-18T21:17:09.330Z,8.70
2022-12-18T21:19:36.318Z,6.53
2022-12-18T21:22:03.736Z,6.43
2022-12-18T21:24:32.729Z,7.78
2022-12-18T21:27:03.308Z,8.07
2022-12-18T21:29:32.487Z,6.75
2022-12-18T21:31:59.477Z,6.68
2022-12-18T21:34:28.862Z,7.18
2022-12-18T21:36:57.332Z,12.88
2022-12-18T21:39:25.170Z,6.80
2022-12-18T21:42:10.969Z,5.63
2022-12-18T21:44:41.583Z,9.23
2022-12-18T21:47:14.555Z,6.20
2022-12-18T21:49:48.387Z,5.47
2022-12-18T21:52:14.938Z,7.37
2022-12-18T21:54:41.548Z,6.53
2022-12-18T21:57:08.781Z,5.68
2022-12-18T21:59:40.528Z,6.80
2022-12-18T22:02:12.185Z,7.15
2022-12-18T22:04:39.173Z,5.33
2022-12-18T22:07:06.175Z,3.42
2022-12-18T22:09:33.431Z,6.65
2022-12-18T22:12:00.602Z,5.65
2022-12-18T22:14:30.230Z,5.13
2022-12-18T22:16:57.446Z,3.57
2022-12-18T22:19:25.802Z,6.32
2022-12-18T22:21:53.186Z,4.68
2022-12-18T22:24:25.127Z,3.35
2022-12-18T22:26:54.190Z,2.88
2022-12-18T22:29:44.706Z,4.17
2022-12-18T22:32:16.357Z,4.10
2022-12-18T22:34:43.614Z,4.13
2022-12-18T22:37:12.069Z,4.28
2022-12-18T22:39:38.634Z,4.78
2022-12-18T22:42:05.362Z,8.60
2022-12-18T22:44:32.072Z,5.25
2022-12-18T22:47:05.928Z,6.72
2022-12-18T22:49:34.712Z,6.72
2022-12-18T22:52:02.180Z,8.32
2022-12-18T22:54:28.747Z,7.63
2022-12-18T22:56:55.649Z,5.60
2022-12-18T22:59:25.396Z,8.82
2022-12-18T23:01:57.967Z,6.55
2022-12-18T23:04:35.924Z,6.90
2022-12-18T23:07:04.561Z,7.07
2022-12-18T23:09:31.369Z,7.10
2022-12-18T23:11:57.939Z,6.07
2022-12-18T23:14:24.438Z,8.05
2022-12-18T23:16:51.477Z,8.43
2022-12-18T23:19:19.700Z,4.80
2022-12-18T23:21:46.285Z,5.90
2022-12-18T23:24:13.105Z,7.47
2022-12-18T23:26:39.624Z,4.32
2022-12-18T23:29:06.414Z,7.57
2022-12-18T23:31:35.528Z,6.87
2022-12-18T23:34:05.748Z,11.10
2022-12-18T23:36:37.631Z,5.35
2022-12-18T23:39:12.824Z,5.88
2022-12-18T23:41:55.103Z,5.38
2022-12-18T23:44:21.709Z,7.53
2022-12-18T23:46:48.209Z,8.60
2022-12-18T23:49:14.837Z,7.38
2022-12-18T23:51:41.408Z,6.70
2022-12-18T23:54:09.447Z,3.50
2022-12-18T23:56:36.399Z,8.67
2022-12-18T23:59:03.147Z,4.85
